sensor_id;sensor_type;location;lat;lon;timestamp;temperature;humidity
12053;DHT22;6087;48.982;12.064;2023-04-15T00:01:44;6.70;1.00
12053;DHT22;6087;48.982;12.064;2023-04-15T00:04:13;6.70;1.00
12053;DHT22;6087;48.982;12.064;2023-04-15T00:06:40;6.70;1.00
12053;DHT22;6087;48.982;12.064;2023-04-15T00:09:07;6.80;1.00
12053;DHT22;6087;48.982;12.064;2023-04-15T00:11:34;6.80;1.00
12053;DHT22;6087;48.982;12.064;2023-04-15T00:14:01;6.80;1.00
12053;DHT22;6087;48.982;12.064;2023-04-15T00:16:29;6.80;1.00
12053;DHT22;6087;48.982;12.064;2023-04-15T00:18:55;6.80;1.00
12053;DHT22;6087;48.982;12.064;2023-04-15T00:21:24;6.80;1.00
12053;DHT22;6087;48.982;12.064;2023-04-15T00:23:52;6.70;1.00
12053;DHT22;6087;48.982;12.064;2023-04-15T00:26:19;6.70;1.00
12053;DHT22;6087;48.982;12.064;2023-04-15T00:28:46;6.80;1.00
12053;DHT22;6087;48.982;12.064;2023-04-15T00:31:16;6.70;1.00
12053;DHT22;6087;48.982;12.064;2023-04-15T00:33:43;6.70;1.00
12053;DHT22;6087;48.982;12.064;2023-04-15T00:36:13;6.70;1.00
12053;DHT22;6087;48.982;12.064;2023-04-15T00:38:41;6.70;1.00
12053;DHT22;6087;48.982;12.064;2023-04-15T00:41:09;6.70;1.00
12053;DHT22;6087;48.982;12.064;2023-04-15T00:43:36;6.70;1.00
12053;DHT22;6087;48.982;12.064;2023-04-15T00:46:04;6.70;1.00
12053;DHT22;6087;48.982;12.064;2023-04-15T00:48:32;6.70;1.00
12053;DHT22;6087;48.982;12.064;2023-04-15T00:51:01;6.70;1.00
12053;DHT22;6087;48.982;12.064;2023-04-15T00:53:28;6.80;1.00
12053;DHT22;6087;48.982;12.064;2023-04-15T00:55:56;6.80;1.00
12053;DHT22;6087;48.982;12.064;2023-04-15T00:58:23;6.80;1.00
12053;DHT22;6087;48.982;12.064;2023-04-15T01:00:50;6.80;1.00
12053;DHT22;6087;48.982;12.064;2023-04-15T01:03:19;6.70;1.00
12053;DHT22;6087;48.982;12.064;2023-04-15T01:05:46;6.80;1.00
12053;DHT22;6087;48.982;12.064;2023-04-15T01:08:13;6.80;1.00
12053;DHT22;6087;48.982;12.064;2023-04-15T01:10:41;6.70;1.00
12053;DHT22;6087;48.982;12.064;2023-04-15T01:13:09;6.70;1.00
12053;DHT22;6087;48.982;12.064;2023-04-15T01:15:36;6.80;1.00
12053;DHT22;6087;48.982;12.064;2023-04-15T01:18:04;6.90;1.00
12053;DHT22;6087;48.982;12.064;2023-04-15T01:20:32;6.90;1.00
12053;DHT22;6087;48.982;12.064;2023-04-15T01:23:00;6.90;1.00
12053;DHT22;6087;48.982;12.064;2023-04-15T01:25:31;6.80;1.00
12053;DHT22;6087;48.982;12.064;2023-04-15T01:27:58;6.80;1.00
12053;DHT22;6087;48.982;12.064;2023-04-15T01:30:25;6.80;1.00
12053;DHT22;6087;48.982;12.064;2023-04-15T01:32:55;6.80;1.00
12053;DHT22;6087;48.982;12.064;2023-04-15T01:35:22;6.90;1.00
12053;DHT22;6087;48.982;12.064;2023-04-15T01:37:49;6.90;1.00
12053;DHT22;6087;48.982;12.064;2023-04-15T01:40:17;6.90;1.00
12053;DHT22;6087;48.982;12.064;2023-04-15T01:42:45;6.90;1.00
12053;DHT22;6087;48.982;12.064;2023-04-15T01:45:12;6.80;1.00
12053;DHT22;6087;48.982;12.064;2023-04-15T01:47:39;6.80;1.00
12053;DHT22;6087;48.982;12.064;2023-04-15T01:50:07;6.80;1.00
12053;DHT22;6087;48.982;12.064;2023-04-15T01:52:34;6.80;1.00
12053;DHT22;6087;48.982;12.064;2023-04-15T01:55:01;6.80;1.00
12053;DHT22;6087;48.982;12.064;2023-04-15T01:57:28;6.70;1.00
12053;DHT22;6087;48.982;12.064;2023-04-15T01:59:57;6.70;1.00
12053;DHT22;6087;48.982;12.064;2023-04-15T02:02:33;6.70;1.00
12053;DHT22;6087;48.982;12.064;2023-04-15T02:05:00;6.70;1.00
12053;DHT22;6087;48.982;12.064;2023-04-15T02:07:29;6.80;1.00
12053;DHT22;6087;48.982;12.064;2023-04-15T02:09:56;6.80;1.00
12053;DHT22;6087;48.982;12.064;2023-04-15T02:12:26;6.80;1.00
12053;DHT22;6087;48.982;12.064;2023-04-15T02:14:53;6.80;1.00
12053;DHT22;6087;48.982;12.064;2023-04-15T02:17:22;6.80;1.00
12053;DHT22;6087;48.982;12.064;2023-04-15T02:19:48;6.70;1.00
12053;DHT22;6087;48.982;12.064;2023-04-15T02:22:17;6.70;1.00
12053;DHT22;6087;48.982;12.064;2023-04-15T02:24:44;6.60;1.00
12053;DHT22;6087;48.982;12.064;2023-04-15T02:27:22;6.70;1.00
12053;DHT22;6087;48.982;12.064;2023-04-15T02:29:49;6.60;1.00
12053;DHT22;6087;48.982;12.064;2023-04-15T02:32:24;6.60;1.00
12053;DHT22;6087;48.982;12.064;2023-04-15T02:34:51;6.50;1.00
12053;DHT22;6087;48.982;12.064;2023-04-15T02:37:27;6.50;1.00
12053;DHT22;6087;48.982;12.064;2023-04-15T02:39:55;6.50;1.00
12053;DHT22;6087;48.982;12.064;2023-04-15T02:42:22;6.50;1.00
12053;DHT22;6087;48.982;12.064;2023-04-15T02:44:52;6.60;1.00
12053;DHT22;6087;48.982;12.064;2023-04-15T02:47:20;6.60;1.00
12053;DHT22;6087;48.982;12.064;2023-04-15T02:49:48;6.60;1.00
12053;DHT22;6087;48.982;12.064;2023-04-15T02:52:15;6.60;1.00
12053;DHT22;6087;48.982;12.064;2023-04-15T02:54:42;6.70;1.00
12053;DHT22;6087;48.982;12.064;2023-04-15T02:57:09;6.70;1.00
12053;DHT22;6087;48.982;12.064;2023-04-15T02:59:36;6.70;1.00
12053;DHT22;6087;48.982;12.064;2023-04-15T03:02:03;6.70;1.00
12053;DHT22;6087;48.982;12.064;2023-04-15T03:04:35;6.70;1.00
12053;DHT22;6087;48.982;12.064;2023-04-15T03:07:03;6.70;1.00
12053;DHT22;6087;48.982;12.064;2023-04-15T03:09:30;6.70;1.00
12053;DHT22;6087;48.982;12.064;2023-04-15T03:11:57;6.60;1.00
12053;DHT22;6087;48.982;12.064;2023-04-15T03:14:24;6.50;1.00
12053;DHT22;6087;48.982;12.064;2023-04-15T03:16:51;6.50;1.00
12053;DHT22;6087;48.982;12.064;2023-04-15T03:19:18;6.60;1.00
12053;DHT22;6087;48.982;12.064;2023-04-15T03:21:45;6.60;1.00
12053;DHT22;6087;48.982;12.064;2023-04-15T03:24:13;6.60;1.00
12053;DHT22;6087;48.982;12.064;2023-04-15T03:26:40;6.60;1.00
12053;DHT22;6087;48.982;12.064;2023-04-15T03:29:07;6.50;1.00
12053;DHT22;6087;48.982;12.064;2023-04-15T03:31:34;6.50;1.00
12053;DHT22;6087;48.982;12.064;2023-04-15T03:34:01;6.50;7.60
12053;DHT22;6087;48.982;12.064;2023-04-15T03:36:28;6.50;17.50
12053;DHT22;6087;48.982;12.064;2023-04-15T03:38:55;6.50;32.30
12053;DHT22;6087;48.982;12.064;2023-04-15T03:41:24;6.40;46.30
12053;DHT22;6087;48.982;12.064;2023-04-15T03:43:51;6.40;56.00
12053;DHT22;6087;48.982;12.064;2023-04-15T03:46:18;6.40;64.70
12053;DHT22;6087;48.982;12.064;2023-04-15T03:48:46;6.40;94.00
12053;DHT22;6087;48.982;12.064;2023-04-15T03:51:13;6.30;93.60
12053;DHT22;6087;48.982;12.064;2023-04-15T03:53:40;6.30;99.90
12053;DHT22;6087;48.982;12.064;2023-04-15T03:56:07;6.30;99.90
12053;DHT22;6087;48.982;12.064;2023-04-15T03:58:35;6.20;99.90
12053;DHT22;6087;48.982;12.064;2023-04-15T04:01:05;6.20;99.90
12053;DHT22;6087;48.982;12.064;2023-04-15T04:03:34;6.20;99.90
12053;DHT22;6087;48.982;12.064;2023-04-15T04:06:01;6.10;99.90
12053;DHT22;6087;48.982;12.064;2023-04-15T04:08:28;6.10;99.90
12053;DHT22;6087;48.982;12.064;2023-04-15T04:10:55;6.10;99.90
12053;DHT22;6087;48.982;12.064;2023-04-15T04:13:22;6.10;99.90
12053;DHT22;6087;48.982;12.064;2023-04-15T04:15:50;6.00;99.90
12053;DHT22;6087;48.982;12.064;2023-04-15T04:18:17;6.00;99.90
12053;DHT22;6087;48.982;12.064;2023-04-15T04:20:44;5.90;99.90
12053;DHT22;6087;48.982;12.064;2023-04-15T04:23:11;6.00;99.90
12053;DHT22;6087;48.982;12.064;2023-04-15T04:25:38;6.00;99.90
12053;DHT22;6087;48.982;12.064;2023-04-15T04:28:06;6.00;99.90
12053;DHT22;6087;48.982;12.064;2023-04-15T04:30:36;6.00;99.90
12053;DHT22;6087;48.982;12.064;2023-04-15T04:33:04;6.00;99.90
12053;DHT22;6087;48.982;12.064;2023-04-15T04:35:32;6.00;99.90
12053;DHT22;6087;48.982;12.064;2023-04-15T04:38:02;6.00;99.90
12053;DHT22;6087;48.982;12.064;2023-04-15T04:40:29;5.90;99.90
12053;DHT22;6087;48.982;12.064;2023-04-15T04:42:56;5.90;99.90
12053;DHT22;6087;48.982;12.064;2023-04-15T04:45:22;6.00;99.90
12053;DHT22;6087;48.982;12.064;2023-04-15T04:47:49;6.10;99.90
12053;DHT22;6087;48.982;12.064;2023-04-15T04:50:18;6.10;99.90
12053;DHT22;6087;48.982;12.064;2023-04-15T04:52:45;6.20;99.90
12053;DHT22;6087;48.982;12.064;2023-04-15T04:55:11;6.20;99.90
12053;DHT22;6087;48.982;12.064;2023-04-15T04:57:38;6.20;99.90
12053;DHT22;6087;48.982;12.064;2023-04-15T05:00:06;6.30;99.90
12053;DHT22;6087;48.982;12.064;2023-04-15T05:02:34;6.30;99.90
12053;DHT22;6087;48.982;12.064;2023-04-15T05:05:01;6.30;99.90
12053;DHT22;6087;48.982;12.064;2023-04-15T05:07:29;6.20;99.90
12053;DHT22;6087;48.982;12.064;2023-04-15T05:09:56;6.30;99.90
12053;DHT22;6087;48.982;12.064;2023-04-15T05:12:23;6.30;99.90
12053;DHT22;6087;48.982;12.064;2023-04-15T05:14:50;6.30;99.90
12053;DHT22;6087;48.982;12.064;2023-04-15T05:17:23;6.30;99.90
12053;DHT22;6087;48.982;12.064;2023-04-15T05:19:55;6.30;99.90
12053;DHT22;6087;48.982;12.064;2023-04-15T05:22:22;6.30;99.90
12053;DHT22;6087;48.982;12.064;2023-04-15T05:24:50;6.30;99.90
12053;DHT22;6087;48.982;12.064;2023-04-15T05:27:17;6.30;99.90
12053;DHT22;6087;48.982;12.064;2023-04-15T05:29:44;6.30;99.90
12053;DHT22;6087;48.982;12.064;2023-04-15T05:32:15;6.20;99.90
12053;DHT22;6087;48.982;12.064;2023-04-15T05:34:42;6.30;99.90
12053;DHT22;6087;48.982;12.064;2023-04-15T05:37:08;6.30;99.90
12053;DHT22;6087;48.982;12.064;2023-04-15T05:39:38;6.30;99.90
12053;DHT22;6087;48.982;12.064;2023-04-15T05:42:09;6.20;99.90
12053;DHT22;6087;48.982;12.064;2023-04-15T05:44:39;6.10;99.90
12053;DHT22;6087;48.982;12.064;2023-04-15T05:47:06;6.00;99.90
12053;DHT22;6087;48.982;12.064;2023-04-15T05:49:34;6.00;99.90
12053;DHT22;6087;48.982;12.064;2023-04-15T05:52:01;6.00;99.90
12053;DHT22;6087;48.982;12.064;2023-04-15T05:54:28;6.00;99.90
12053;DHT22;6087;48.982;12.064;2023-04-15T05:56:55;6.00;99.90
12053;DHT22;6087;48.982;12.064;2023-04-15T05:59:23;6.00;99.90
12053;DHT22;6087;48.982;12.064;2023-04-15T06:01:50;6.00;99.90
12053;DHT22;6087;48.982;12.064;2023-04-15T06:04:18;5.90;99.90
12053;DHT22;6087;48.982;12.064;2023-04-15T06:06:45;5.90;99.90
12053;DHT22;6087;48.982;12.064;2023-04-15T06:09:12;5.90;99.90
12053;DHT22;6087;48.982;12.064;2023-04-15T06:11:39;5.90;99.90
12053;DHT22;6087;48.982;12.064;2023-04-15T06:14:06;5.90;99.90
12053;DHT22;6087;48.982;12.064;2023-04-15T06:16:35;6.00;99.90
12053;DHT22;6087;48.982;12.064;2023-04-15T06:19:02;6.00;99.90
12053;DHT22;6087;48.982;12.064;2023-04-15T06:21:29;6.00;99.90
12053;DHT22;6087;48.982;12.064;2023-04-15T06:23:57;6.00;99.90
12053;DHT22;6087;48.982;12.064;2023-04-15T06:26:27;6.00;99.90
12053;DHT22;6087;48.982;12.064;2023-04-15T06:28:54;6.00;99.90
12053;DHT22;6087;48.982;12.064;2023-04-15T06:31:21;6.10;99.90
12053;DHT22;6087;48.982;12.064;2023-04-15T06:33:50;6.10;99.90
12053;DHT22;6087;48.982;12.064;2023-04-15T06:36:16;6.10;99.90
12053;DHT22;6087;48.982;12.064;2023-04-15T06:38:43;6.00;99.90
12053;DHT22;6087;48.982;12.064;2023-04-15T06:41:13;6.00;99.90
12053;DHT22;6087;48.982;12.064;2023-04-15T06:43:40;6.10;99.90
12053;DHT22;6087;48.982;12.064;2023-04-15T06:46:10;6.10;99.90
12053;DHT22;6087;48.982;12.064;2023-04-15T06:48:37;6.00;99.90
12053;DHT22;6087;48.982;12.064;2023-04-15T06:51:08;6.00;99.90
12053;DHT22;6087;48.982;12.064;2023-04-15T06:53:36;6.00;99.90
12053;DHT22;6087;48.982;12.064;2023-04-15T06:56:06;6.00;99.90
12053;DHT22;6087;48.982;12.064;2023-04-15T06:58:33;6.00;99.90
12053;DHT22;6087;48.982;12.064;2023-04-15T07:01:00;5.90;99.90
12053;DHT22;6087;48.982;12.064;2023-04-15T07:03:30;5.90;99.90
12053;DHT22;6087;48.982;12.064;2023-04-15T07:05:59;6.00;99.90
12053;DHT22;6087;48.982;12.064;2023-04-15T07:08:32;6.00;99.90
12053;DHT22;6087;48.982;12.064;2023-04-15T07:10:59;5.90;99.90
12053;DHT22;6087;48.982;12.064;2023-04-15T07:13:26;5.90;99.90
12053;DHT22;6087;48.982;12.064;2023-04-15T07:15:53;6.00;99.90
12053;DHT22;6087;48.982;12.064;2023-04-15T07:18:20;6.00;99.90
12053;DHT22;6087;48.982;12.064;2023-04-15T07:20:46;6.00;99.90
12053;DHT22;6087;48.982;12.064;2023-04-15T07:23:13;6.00;99.90
12053;DHT22;6087;48.982;12.064;2023-04-15T07:25:42;6.10;99.90
12053;DHT22;6087;48.982;12.064;2023-04-15T07:28:09;6.10;99.90
12053;DHT22;6087;48.982;12.064;2023-04-15T07:30:36;6.10;99.90
12053;DHT22;6087;48.982;12.064;2023-04-15T07:33:04;6.20;99.90
12053;DHT22;6087;48.982;12.064;2023-04-15T07:35:31;6.10;99.90
12053;DHT22;6087;48.982;12.064;2023-04-15T07:37:58;6.10;99.90
12053;DHT22;6087;48.982;12.064;2023-04-15T07:40:25;6.20;99.90
12053;DHT22;6087;48.982;12.064;2023-04-15T07:42:55;6.20;99.90
12053;DHT22;6087;48.982;12.064;2023-04-15T07:45:22;6.30;99.90
12053;DHT22;6087;48.982;12.064;2023-04-15T07:47:49;6.30;99.90
12053;DHT22;6087;48.982;12.064;2023-04-15T07:50:16;6.30;99.90
12053;DHT22;6087;48.982;12.064;2023-04-15T07:52:44;6.30;99.90
12053;DHT22;6087;48.982;12.064;2023-04-15T07:55:11;6.40;99.90
12053;DHT22;6087;48.982;12.064;2023-04-15T07:57:38;6.40;99.90
12053;DHT22;6087;48.982;12.064;2023-04-15T08:00:07;6.40;99.90
12053;DHT22;6087;48.982;12.064;2023-04-15T08:02:38;6.40;99.90
12053;DHT22;6087;48.982;12.064;2023-04-15T08:05:06;6.40;99.90
12053;DHT22;6087;48.982;12.064;2023-04-15T08:07:33;6.40;99.90
12053;DHT22;6087;48.982;12.064;2023-04-15T08:10:01;6.40;99.90
12053;DHT22;6087;48.982;12.064;2023-04-15T08:12:30;6.40;99.90
12053;DHT22;6087;48.982;12.064;2023-04-15T08:14:58;6.40;99.90
12053;DHT22;6087;48.982;12.064;2023-04-15T08:17:26;6.40;99.90
12053;DHT22;6087;48.982;12.064;2023-04-15T08:19:53;6.40;99.90
12053;DHT22;6087;48.982;12.064;2023-04-15T08:22:21;6.40;99.90
12053;DHT22;6087;48.982;12.064;2023-04-15T08:24:48;6.40;99.90
12053;DHT22;6087;48.982;12.064;2023-04-15T08:27:15;6.50;99.90
12053;DHT22;6087;48.982;12.064;2023-04-15T08:29:43;6.50;99.90
12053;DHT22;6087;48.982;12.064;2023-04-15T08:32:13;6.50;99.90
12053;DHT22;6087;48.982;12.064;2023-04-15T08:34:42;6.50;99.90
12053;DHT22;6087;48.982;12.064;2023-04-15T08:37:11;6.50;99.90
12053;DHT22;6087;48.982;12.064;2023-04-15T08:39:47;6.60;99.90
12053;DHT22;6087;48.982;12.064;2023-04-15T08:42:35;6.50;99.90
12053;DHT22;6087;48.982;12.064;2023-04-15T08:45:04;6.50;99.90
12053;DHT22;6087;48.982;12.064;2023-04-15T08:47:32;6.60;99.90
12053;DHT22;6087;48.982;12.064;2023-04-15T08:50:05;6.60;99.90
12053;DHT22;6087;48.982;12.064;2023-04-15T08:52:34;6.60;99.90
12053;DHT22;6087;48.982;12.064;2023-04-15T08:55:02;6.60;99.90
12053;DHT22;6087;48.982;12.064;2023-04-15T08:57:30;6.60;99.90
12053;DHT22;6087;48.982;12.064;2023-04-15T08:59:58;6.60;99.90
12053;DHT22;6087;48.982;12.064;2023-04-15T09:02:25;6.70;99.90
12053;DHT22;6087;48.982;12.064;2023-04-15T09:04:53;6.70;99.90
12053;DHT22;6087;48.982;12.064;2023-04-15T09:07:21;6.60;99.90
12053;DHT22;6087;48.982;12.064;2023-04-15T09:09:48;6.60;99.90
12053;DHT22;6087;48.982;12.064;2023-04-15T09:12:21;6.60;99.90
12053;DHT22;6087;48.982;12.064;2023-04-15T09:14:48;6.60;99.90
12053;DHT22;6087;48.982;12.064;2023-04-15T09:17:18;6.60;99.90
12053;DHT22;6087;48.982;12.064;2023-04-15T09:19:46;6.70;99.90
12053;DHT22;6087;48.982;12.064;2023-04-15T09:22:13;6.70;99.90
12053;DHT22;6087;48.982;12.064;2023-04-15T09:24:42;6.70;99.90
12053;DHT22;6087;48.982;12.064;2023-04-15T09:27:09;6.70;99.90
12053;DHT22;6087;48.982;12.064;2023-04-15T09:29:37;6.70;99.90
12053;DHT22;6087;48.982;12.064;2023-04-15T09:32:11;6.70;99.90
12053;DHT22;6087;48.982;12.064;2023-04-15T09:34:38;6.70;99.90
12053;DHT22;6087;48.982;12.064;2023-04-15T09:37:05;6.70;99.90
12053;DHT22;6087;48.982;12.064;2023-04-15T09:39:51;6.80;99.90
12053;DHT22;6087;48.982;12.064;2023-04-15T09:42:18;6.80;99.90
12053;DHT22;6087;48.982;12.064;2023-04-15T09:44:49;6.80;99.90
12053;DHT22;6087;48.982;12.064;2023-04-15T09:47:29;6.80;99.90
12053;DHT22;6087;48.982;12.064;2023-04-15T09:50:03;6.80;99.90
12053;DHT22;6087;48.982;12.064;2023-04-15T09:52:30;6.80;99.90
12053;DHT22;6087;48.982;12.064;2023-04-15T09:54:59;6.80;99.90
12053;DHT22;6087;48.982;12.064;2023-04-15T09:57:33;6.80;99.90
12053;DHT22;6087;48.982;12.064;2023-04-15T10:00:01;6.80;99.90
12053;DHT22;6087;48.982;12.064;2023-04-15T10:02:29;6.80;99.90
12053;DHT22;6087;48.982;12.064;2023-04-15T10:04:56;6.80;99.90
12053;DHT22;6087;48.982;12.064;2023-04-15T10:07:24;6.80;99.90
12053;DHT22;6087;48.982;12.064;2023-04-15T10:09:52;6.80;99.90
12053;DHT22;6087;48.982;12.064;2023-04-15T10:12:21;6.90;99.90
12053;DHT22;6087;48.982;12.064;2023-04-15T10:14:54;6.90;99.90
12053;DHT22;6087;48.982;12.064;2023-04-15T10:17:22;6.90;99.90
12053;DHT22;6087;48.982;12.064;2023-04-15T10:19:52;6.90;99.90
12053;DHT22;6087;48.982;12.064;2023-04-15T10:22:27;6.90;99.90
12053;DHT22;6087;48.982;12.064;2023-04-15T10:24:55;6.90;99.90
12053;DHT22;6087;48.982;12.064;2023-04-15T10:27:23;6.90;99.90
12053;DHT22;6087;48.982;12.064;2023-04-15T10:29:51;7.00;99.90
12053;DHT22;6087;48.982;12.064;2023-04-15T10:32:19;7.10;99.90
12053;DHT22;6087;48.982;12.064;2023-04-15T10:34:48;7.10;99.90
12053;DHT22;6087;48.982;12.064;2023-04-15T10:37:20;7.10;99.90
12053;DHT22;6087;48.982;12.064;2023-04-15T10:39:47;7.10;99.90
12053;DHT22;6087;48.982;12.064;2023-04-15T10:42:18;7.10;99.90
12053;DHT22;6087;48.982;12.064;2023-04-15T10:44:48;7.10;99.90
12053;DHT22;6087;48.982;12.064;2023-04-15T10:47:17;7.20;99.90
12053;DHT22;6087;48.982;12.064;2023-04-15T10:49:46;7.30;99.90
12053;DHT22;6087;48.982;12.064;2023-04-15T10:52:15;7.40;96.70
12053;DHT22;6087;48.982;12.064;2023-04-15T10:54:43;7.40;77.80
12053;DHT22;6087;48.982;12.064;2023-04-15T10:57:15;7.40;90.60
12053;DHT22;6087;48.982;12.064;2023-04-15T11:00:09;7.30;76.10
12053;DHT22;6087;48.982;12.064;2023-04-15T11:02:45;7.40;99.80
12053;DHT22;6087;48.982;12.064;2023-04-15T11:05:13;7.50;99.90
12053;DHT22;6087;48.982;12.064;2023-04-15T11:07:47;7.60;85.20
12053;DHT22;6087;48.982;12.064;2023-04-15T11:13:23;7.80;76.10
12053;DHT22;6087;48.982;12.064;2023-04-15T11:15:55;7.80;31.70
12053;DHT22;6087;48.982;12.064;2023-04-15T11:18:27;7.90;66.60
12053;DHT22;6087;48.982;12.064;2023-04-15T11:20:56;8.00;46.00
12053;DHT22;6087;48.982;12.064;2023-04-15T11:23:32;8.00;16.20
12053;DHT22;6087;48.982;12.064;2023-04-15T11:26:01;8.00;19.60
12053;DHT22;6087;48.982;12.064;2023-04-15T11:28:31;8.00;19.00
12053;DHT22;6087;48.982;12.064;2023-04-15T11:31:05;8.00;39.40
12053;DHT22;6087;48.982;12.064;2023-04-15T11:33:33;8.00;1.00
12053;DHT22;6087;48.982;12.064;2023-04-15T11:36:00;7.90;1.00
12053;DHT22;6087;48.982;12.064;2023-04-15T11:38:28;7.90;1.00
12053;DHT22;6087;48.982;12.064;2023-04-15T11:40:56;7.90;1.00
12053;DHT22;6087;48.982;12.064;2023-04-15T11:43:23;7.90;6.90
12053;DHT22;6087;48.982;12.064;2023-04-15T11:45:52;8.00;1.00
12053;DHT22;6087;48.982;12.064;2023-04-15T11:48:21;8.00;1.00
12053;DHT22;6087;48.982;12.064;2023-04-15T11:50:53;8.00;1.00
12053;DHT22;6087;48.982;12.064;2023-04-15T11:53:21;8.00;1.00
12053;DHT22;6087;48.982;12.064;2023-04-15T11:55:49;8.00;1.00
12053;DHT22;6087;48.982;12.064;2023-04-15T11:58:19;8.00;1.00
12053;DHT22;6087;48.982;12.064;2023-04-15T12:00:47;8.10;10.60
12053;DHT22;6087;48.982;12.064;2023-04-15T12:03:24;8.10;1.00
12053;DHT22;6087;48.982;12.064;2023-04-15T12:06:10;8.20;1.00
12053;DHT22;6087;48.982;12.064;2023-04-15T12:08:51;8.20;1.00
12053;DHT22;6087;48.982;12.064;2023-04-15T12:11:19;8.20;1.00
12053;DHT22;6087;48.982;12.064;2023-04-15T12:13:48;8.20;1.00
12053;DHT22;6087;48.982;12.064;2023-04-15T12:16:20;8.20;1.00
12053;DHT22;6087;48.982;12.064;2023-04-15T12:18:52;8.10;1.00
12053;DHT22;6087;48.982;12.064;2023-04-15T12:21:21;8.10;1.00
12053;DHT22;6087;48.982;12.064;2023-04-15T12:23:49;8.10;1.00
12053;DHT22;6087;48.982;12.064;2023-04-15T12:26:25;8.00;1.00
12053;DHT22;6087;48.982;12.064;2023-04-15T12:28:53;8.10;1.00
12053;DHT22;6087;48.982;12.064;2023-04-15T12:31:21;8.00;1.00
12053;DHT22;6087;48.982;12.064;2023-04-15T12:33:48;8.10;1.00
12053;DHT22;6087;48.982;12.064;2023-04-15T12:36:16;8.10;1.00
12053;DHT22;6087;48.982;12.064;2023-04-15T12:38:43;8.10;1.00
12053;DHT22;6087;48.982;12.064;2023-04-15T12:41:11;8.10;1.00
12053;DHT22;6087;48.982;12.064;2023-04-15T12:43:38;8.10;1.00
12053;DHT22;6087;48.982;12.064;2023-04-15T12:46:05;8.10;1.00
12053;DHT22;6087;48.982;12.064;2023-04-15T12:48:32;8.20;1.00
12053;DHT22;6087;48.982;12.064;2023-04-15T12:50:59;8.20;1.00
12053;DHT22;6087;48.982;12.064;2023-04-15T12:53:28;8.10;1.00
12053;DHT22;6087;48.982;12.064;2023-04-15T12:55:55;8.10;1.00
12053;DHT22;6087;48.982;12.064;2023-04-15T12:58:22;8.10;1.00
12053;DHT22;6087;48.982;12.064;2023-04-15T13:00:50;8.10;1.00
12053;DHT22;6087;48.982;12.064;2023-04-15T13:03:17;8.10;1.00
12053;DHT22;6087;48.982;12.064;2023-04-15T13:05:44;8.00;1.00
12053;DHT22;6087;48.982;12.064;2023-04-15T13:08:11;8.00;1.00
12053;DHT22;6087;48.982;12.064;2023-04-15T13:10:39;8.00;1.00
12053;DHT22;6087;48.982;12.064;2023-04-15T13:13:07;8.10;1.00
12053;DHT22;6087;48.982;12.064;2023-04-15T13:15:34;8.10;1.00
12053;DHT22;6087;48.982;12.064;2023-04-15T13:18:01;8.10;1.00
12053;DHT22;6087;48.982;12.064;2023-04-15T13:20:28;8.10;1.00
12053;DHT22;6087;48.982;12.064;2023-04-15T13:22:55;8.10;1.00
12053;DHT22;6087;48.982;12.064;2023-04-15T13:25:22;8.10;1.00
12053;DHT22;6087;48.982;12.064;2023-04-15T13:27:50;8.10;1.00
12053;DHT22;6087;48.982;12.064;2023-04-15T13:30:17;8.10;1.00
12053;DHT22;6087;48.982;12.064;2023-04-15T13:32:44;8.10;1.00
12053;DHT22;6087;48.982;12.064;2023-04-15T13:35:11;8.10;1.00
12053;DHT22;6087;48.982;12.064;2023-04-15T13:37:38;8.10;1.00
12053;DHT22;6087;48.982;12.064;2023-04-15T13:40:06;8.10;1.00
12053;DHT22;6087;48.982;12.064;2023-04-15T13:42:33;8.10;1.00
12053;DHT22;6087;48.982;12.064;2023-04-15T13:45:06;8.20;1.00
12053;DHT22;6087;48.982;12.064;2023-04-15T13:47:33;8.20;1.00
12053;DHT22;6087;48.982;12.064;2023-04-15T13:50:03;8.20;1.00
12053;DHT22;6087;48.982;12.064;2023-04-15T13:52:30;8.20;1.00
12053;DHT22;6087;48.982;12.064;2023-04-15T13:54:57;8.20;1.00
12053;DHT22;6087;48.982;12.064;2023-04-15T13:57:24;8.20;1.00
12053;DHT22;6087;48.982;12.064;2023-04-15T13:59:51;8.20;1.00
12053;DHT22;6087;48.982;12.064;2023-04-15T14:02:20;8.20;1.00
12053;DHT22;6087;48.982;12.064;2023-04-15T14:04:48;8.20;1.00
12053;DHT22;6087;48.982;12.064;2023-04-15T14:07:15;8.20;1.00
12053;DHT22;6087;48.982;12.064;2023-04-15T14:09:43;8.20;5.20
12053;DHT22;6087;48.982;12.064;2023-04-15T14:12:10;8.20;17.70
12053;DHT22;6087;48.982;12.064;2023-04-15T14:14:37;8.10;30.90
12053;DHT22;6087;48.982;12.064;2023-04-15T14:17:04;8.10;33.40
12053;DHT22;6087;48.982;12.064;2023-04-15T14:19:33;8.00;38.60
12053;DHT22;6087;48.982;12.064;2023-04-15T14:22:00;8.10;33.90
12053;DHT22;6087;48.982;12.064;2023-04-15T14:24:28;8.10;49.20
12053;DHT22;6087;48.982;12.064;2023-04-15T14:26:54;8.10;49.50
12053;DHT22;6087;48.982;12.064;2023-04-15T14:29:22;8.10;48.60
12053;DHT22;6087;48.982;12.064;2023-04-15T14:31:49;8.10;62.20
12053;DHT22;6087;48.982;12.064;2023-04-15T14:34:16;8.10;80.20
12053;DHT22;6087;48.982;12.064;2023-04-15T14:36:44;8.00;91.70
12053;DHT22;6087;48.982;12.064;2023-04-15T14:39:12;8.00;75.20
12053;DHT22;6087;48.982;12.064;2023-04-15T14:41:39;8.00;59.10
12053;DHT22;6087;48.982;12.064;2023-04-15T14:44:07;8.00;74.90
12053;DHT22;6087;48.982;12.064;2023-04-15T14:46:36;7.90;85.70
12053;DHT22;6087;48.982;12.064;2023-04-15T14:49:06;8.00;86.00
12053;DHT22;6087;48.982;12.064;2023-04-15T14:51:33;8.00;89.60
12053;DHT22;6087;48.982;12.064;2023-04-15T14:54:02;7.90;74.90
12053;DHT22;6087;48.982;12.064;2023-04-15T14:56:29;7.90;80.30
12053;DHT22;6087;48.982;12.064;2023-04-15T14:58:56;7.90;68.40
12053;DHT22;6087;48.982;12.064;2023-04-15T15:01:23;7.90;73.30
12053;DHT22;6087;48.982;12.064;2023-04-15T15:03:50;7.90;44.60
12053;DHT22;6087;48.982;12.064;2023-04-15T15:06:18;7.90;64.40
12053;DHT22;6087;48.982;12.064;2023-04-15T15:08:45;7.90;58.90
12053;DHT22;6087;48.982;12.064;2023-04-15T15:11:17;7.90;62.00
12053;DHT22;6087;48.982;12.064;2023-04-15T15:13:44;7.90;60.60
12053;DHT22;6087;48.982;12.064;2023-04-15T15:16:11;7.90;50.90
12053;DHT22;6087;48.982;12.064;2023-04-15T15:18:38;7.90;55.80
12053;DHT22;6087;48.982;12.064;2023-04-15T15:21:05;7.90;61.70
12053;DHT22;6087;48.982;12.064;2023-04-15T15:23:33;7.80;63.50
12053;DHT22;6087;48.982;12.064;2023-04-15T15:26:00;7.80;52.70
12053;DHT22;6087;48.982;12.064;2023-04-15T15:28:28;7.90;51.00
12053;DHT22;6087;48.982;12.064;2023-04-15T15:30:55;7.90;50.00
12053;DHT22;6087;48.982;12.064;2023-04-15T15:33:22;7.90;51.60
12053;DHT22;6087;48.982;12.064;2023-04-15T15:35:49;7.80;44.20
12053;DHT22;6087;48.982;12.064;2023-04-15T15:38:26;7.80;44.20
12053;DHT22;6087;48.982;12.064;2023-04-15T15:40:53;7.80;65.30
12053;DHT22;6087;48.982;12.064;2023-04-15T15:43:20;7.80;61.00
12053;DHT22;6087;48.982;12.064;2023-04-15T15:45:48;7.80;63.90
12053;DHT22;6087;48.982;12.064;2023-04-15T15:48:17;7.80;42.20
12053;DHT22;6087;48.982;12.064;2023-04-15T15:50:44;7.80;53.90
12053;DHT22;6087;48.982;12.064;2023-04-15T15:53:11;7.80;50.80
12053;DHT22;6087;48.982;12.064;2023-04-15T15:55:42;7.80;50.40
12053;DHT22;6087;48.982;12.064;2023-04-15T15:58:09;7.80;64.00
12053;DHT22;6087;48.982;12.064;2023-04-15T16:00:36;7.80;60.20
12053;DHT22;6087;48.982;12.064;2023-04-15T16:03:04;7.80;45.30